Terminal Aerodrome Forecast
Issued by NWS Twin Cities, MN

Home | Current Version | Previous Version | Text Only | Print | Product List | Glossary On
Versions: 1 2 3 4 5 6 7 8 9 10 11 12 13 14 15
000
FTUS43 KMPX 251736
TAFEAU
TAF
KEAU 251736Z 2518/2618 23012KT P6SM BKN030
     FM252000 22011KT P6SM SCT025 BKN040
     FM260000 21008KT P6SM VCSH SCT020 BKN035
     FM260400 20004KT P6SM SCT025
     FM260700 VRB03KT 6SM BR SCT012 OVC020
     FM260900 VRB03KT 2SM BR OVC005
     FM261400 24004KT 4SM BR SCT008 OVC012=

USA.gov is the U.S. government's official web portal to all federal, state and local government web resources and services.